עמוד ראשי
METAR-TAF:

METAR-TAF

שדות תעופה :

Riberalta, בוליביה

קו רוחב: 11-00S, קו אורך: 066-07W, גובה: 141מטר

תצפית מזג אוויר נוכחית

הדו"ח נערך לפני 2 שעות ו 10דקות, בשעה 22:00 UTC
רוח רגועה
טמפרטורת 32 צלסיוס
לחות 59%
לחץ 1011 hPa
ראות 10 קילומטר או יותר

METAR: SLRI 152200Z 00000KT 9999 NSC 32/23 Q1011

זמן: 20:10 (00:10 UTC)


TAF: חסר

תצפיות ותחזיות מזג אוויר לגבי יותר מ- 4,000 שדות תעופה ברחבי העולם. דוחות METAR ו- TAF.

התחנות הזמינות מסומנות בנקודות צהובות ואדומות על גבי המפה.

העבר את העכבר לנקודה הצבעונית על מנת לראות את שם התחנה.

לאחר מכן, לחץ כדי לראות את תוכן ואת תחזיות מזג האוויר.

כדי לשנות את המפה: לחץ על הכפתורים הירוקים עם הפלוס השחור כדי להתקרב; על הכפתור הירוק עם המקף כדי להתרחק; או בחיצים הירוקים למפות סמוכות.


METAR-TAF: